Stations météo

réclame
Mon MeteoGroup
Lingen, Allemagne (10305): Température de l'air & dewpoint: 07.11.2019 09:00:00 - 13.11.2019 09:00:00 (CET)Lingen, Allemagne (10305): Température de l'air 5cm & Température de l'air -5cm: 07.11.2019 09:00:00 - 13.11.2019 09:00:00 (CET)Lingen, Allemagne (10305): Température de l'air -20cm & Température de l'air -100cm: 07.11.2019 09:00:00 - 13.11.2019 09:00:00 (CET)Lingen, Allemagne (10305): Vitesse du vent & gusts: 07.11.2019 09:00:00 - 13.11.2019 09:00:00 (CET)Lingen, Allemagne (10305): Direction du vent: 07.11.2019 09:00:00 - 13.11.2019 09:00:00 (CET)Lingen, Allemagne (10305): reduced air pressure: 07.11.2019 09:00:00 - 13.11.2019 09:00:00 (CET)Lingen, Allemagne (10305): Ensoleillement: 07.11.2019 09:00:00 - 13.11.2019 09:00:00 (CET)Lingen, Allemagne (10305): Quantités de précipitations: 07.11.2019 09:00:00 - 13.11.2019 09:00:00 (CET)
Date & Time tt [°C] td [°C] tt 5cm [°C] tt -5cm [°C] tt -20cm [°C] tt -100cm [°C] ff [km/h] ff [knt] fx [km/h] fx [knt] dd ppp [hPa] sd [min] rr [mm]
13.11.2019 09:00:00 5,5 3,6 5,0 4,4 5,0 9,6 20 11 32 18 S 998,3 0 0,0
13.11.2019 08:00:00 5,1 3,4 4,5 4,1 4,9 9,6 16 8 34 18 S 997,8 0 0,0
13.11.2019 07:00:00 4,7 3,0 4,0 3,9 4,9 9,6 19 10 37 20 S 997,5 0 0,0
13.11.2019 06:00:00 4,4 2,7 3,7 3,6 4,8 9,6 19 10 32 17 S 997,5 0 0,0
13.11.2019 05:00:00 4,2 2,4 3,4 3,2 4,8 9,6 17 9 39 21 S 997,3 0 0,0
13.11.2019 04:00:00 3,6 2,2 2,4 3,1 4,8 9,6 16 9 36 19 S 997,4 0 0,3
13.11.2019 03:00:00 3,6 1,0 2,9 2,8 4,9 9,6 21 11 41 22 S 998,3 0 0,0
13.11.2019 02:00:00 2,8 1,1 2,2 2,3 5,0 9,6 16 9 30 16 SSE 998,7 0 0,0
13.11.2019 01:00:00 2,5 1,0 1,0 2,3 5,2 9,6 15 8 30 16 SSE 998,6 0 0,0
13.11.2019 00:00:00 3,3 1,6 1,5 2,5 5,3 9,6 14 8 31 17 S 998,6 0 0,0
12.11.2019 23:00:00 3,3 1,6 1,6 2,8 5,5 9,7 16 9 29 15 SSE 999,3 0 0,0
12.11.2019 22:00:00 3,5 1,7 1,6 3,1 5,7 9,7 11 6 28 15 S 999,4 0 0,0
12.11.2019 21:00:00 4,3 2,0 2,5 3,5 5,8 9,7 16 9 27 15 S 999,6 0 0,0
12.11.2019 20:00:00 4,7 2,2 2,8 4,0 6,0 9,7 17 9 35 19 S 1000,0 0 0,0
12.11.2019 19:00:00 5,4 2,4 4,2 4,3 6,1 9,7 14 8 25 14 SSE 1000,3 0 0,0
12.11.2019 18:00:00 5,4 2,3 3,4 4,5 6,3 9,7 14 8 26 14 S 1000,3 0 0,0
12.11.2019 17:00:00 5,6 2,1 3,7 5,4 6,3 9,7 14 8 29 16 S 999,9 0 0,0
12.11.2019 16:00:00 5,9 2,6 5,1 6,0 6,3 9,7 12 7 27 14 SSW 999,7 11 0,0
12.11.2019 15:00:00 5,9 2,6 5,2 6,4 6,2 9,7 16 8 33 18 SSW 999,5 0 0,0
12.11.2019 14:00:00 5,7 3,7 5,4 6,6 6,1 9,7 17 9 37 20 S 999,7 0 0,1
12.11.2019 13:00:00 5,9 3,5 5,5 6,1 6,0 9,7 15 8 30 16 S 1000,1 0 0,2
12.11.2019 12:00:00 5,6 3,7 5,2 5,7 5,9 9,7 14 7 32 17 S 1000,4 0 0,0
12.11.2019 11:00:00 6,0 3,0 5,8 5,6 5,8 9,7 18 10 30 16 S 1000,6 0 0,0
12.11.2019 10:00:00 5,9 2,9 5,6 5,3 5,8 9,8 18 10 39 21 SSW 1000,6 0 0,0
12.11.2019 09:00:00 5,5 2,8 4,8 4,9 5,8 9,8 16 8 31 17 S 1001,0 0 0,0
12.11.2019 08:00:00 5,3 2,8 4,5 4,9 5,8 9,8 16 9 36 19 SSW 1000,7 0 0,0
12.11.2019 07:00:00 5,4 3,3 4,7 4,9 5,7 9,8 17 9 35 19 SSW 1000,4 0 0,0
12.11.2019 06:00:00 5,4 3,6 4,7 4,9 5,7 9,8 19 10 38 20 SSW 1000,2 0 0,0
12.11.2019 05:00:00 5,2 3,7 4,5 4,9 5,7 9,8 18 10 40 22 SSW 1000,3 0 0,1
12.11.2019 04:00:00 5,5 3,9 4,7 4,9 5,8 9,8 14 8 36 19 SSW 1000,3 0 0,0
12.11.2019 03:00:00 5,6 4,1 4,8 4,7 5,8 9,8 15 8 28 15 SSW 1000,6 0 0,0
12.11.2019 02:00:00 5,2 4,0 4,0 4,8 5,8 9,9 13 7 31 17 SSW 1000,6 0 0,0
12.11.2019 01:00:00 5,5 4,7 4,5 5,2 5,9 9,9 16 9 29 16 SSW 1000,9 0 0,2
12.11.2019 00:00:00 5,7 4,8 5,0 5,4 5,8 9,9 16 9 30 16 S 1000,9 0 0,4
11.11.2019 23:00:00 6,4 4,6 5,7 5,5 5,8 9,9 16 9 31 17 SSW 1000,7 0 0,0
11.11.2019 22:00:00 6,2 4,9 5,7 5,4 5,7 9,9 15 8 31 17 S 1000,6 0 0,0
11.11.2019 21:00:00 6,3 4,5 5,7 5,4 5,7 9,9 19 10 41 22 S 1000,5 0 0,0
11.11.2019 20:00:00 6,4 4,0 5,5 5,3 5,7 10,0 20 11 36 20 S 1000,1 0 0,0
11.11.2019 19:00:00 6,4 3,7 5,4 5,3 5,6 10,0 13 7 30 16 S 1000,3 0 0,1
11.11.2019 18:00:00 6,7 2,8 5,7 5,5 5,6 10,0 15 8 37 20 SSE 1000,3 0 0,0
11.11.2019 17:00:00 7,3 2,4 6,5 5,6 5,5 10,0 21 11 43 23 SSE 1000,6 0 0,0
11.11.2019 16:00:00 7,5 2,3 6,9 5,9 5,3 10,0 18 10 46 25 SSE 1001,2 0 0,0
11.11.2019 15:00:00 7,5 2,4 7,1 6,1 5,1 10,1 20 11 49 27 S 1002,0 0 0,0
11.11.2019 14:00:00 7,3 2,5 7,0 5,9 4,9 10,1 28 15 49 27 S 1003,2 0 0,0
11.11.2019 13:00:00 7,1 2,9 7,1 5,8 4,5 10,1 21 11 35 19 S 1004,2 2 0,0
11.11.2019 12:00:00 5,6 2,4 6,1 5,2 4,2 10,1 15 8 33 18 SSE 1005,4 13 0,0
11.11.2019 11:00:00 3,9 2,0 4,4 3,5 4,0 10,1 16 8 34 19 SSE 1006,2 5 0,0
11.11.2019 10:00:00 2,2 1,1 2,2 2,5 3,9 10,1 15 8 26 14 SSE 1007,4 0 0,0
11.11.2019 09:00:00 1,6 1,2 1,4 1,7 3,8 10,2 14 8 27 15 SSE 1008,1 0 0,0
11.11.2019 08:00:00 1,1 1,1 0,9 1,2 3,9 10,2 15 8 26 14 SSE 1008,8 0 0,0
11.11.2019 07:00:00 0,6 0,6 0,6 1,1 3,9 10,2 14 7 24 13 SSE 1009,8 0 0,0
11.11.2019 06:00:00 0,8 0,8 0,6 1,1 4,0 10,2 13 7 26 14 S 1010,5 0 0,0
11.11.2019 05:00:00 0,8 0,8 0,2 1,1 4,1 10,2 13 7 23 13 S 1011,7 0 0,0
11.11.2019 04:00:00 0,5 0,2 -1,1 1,1 4,2 10,2 9 5 15 8 SSE 1012,3 0 0,0
11.11.2019 03:00:00 0,6 0,4 -1,1 1,2 4,4 10,3 8 4 13 7 SSE 1012,5 0 0,0
11.11.2019 02:00:00 0,3 0,1 -2,4 1,3 4,5 10,3 5 3 7 4 SSE 1013,1 0 0,0
11.11.2019 01:00:00 0,2 0,1 -2,5 1,4 4,6 10,3 4 2 7 4 S 1013,7 0 0,0
11.11.2019 00:00:00 0,4 0,2 -2,3 1,5 4,8 10,3 5 3 6 3 S 1013,8 0 0,0
10.11.2019 23:00:00 0,6 0,3 -2,1 1,5 5,0 10,3 4 2 8 4 SSW 1014,4 0 0,0
10.11.2019 22:00:00 1,3 0,9 -1,4 1,7 5,3 10,3 5 3 6 4 SSW 1014,6 0 0,0
10.11.2019 21:00:00 1,9 1,4 -0,8 2,2 5,5 10,4 6 3 9 5 S 1014,8 0 0,0
10.11.2019 20:00:00 1,8 1,4 -0,8 2,7 5,8 10,4 5 3 7 4 S 1015,1 0 0,0
10.11.2019 19:00:00 2,8 2,1 -0,2 3,4 6,0 10,4 3 1 8 5 S 1015,0 0 0,0
10.11.2019 18:00:00 4,3 2,9 0,9 4,2 6,2 10,4 5 3 8 4 SSW 1014,6 0 0,0
10.11.2019 17:00:00 6,0 3,1 2,0 5,3 6,3 10,4 4 2 11 6 SSW 1014,3 20 0,0
10.11.2019 16:00:00 8,5 3,2 5,5 6,2 6,2 10,5 5 3 14 8 SSW 1014,1 14 0,0
10.11.2019 15:00:00 8,9 3,0 6,6 7,1 6,1 10,5 8 5 16 8 SW 1013,7 50 0,0
10.11.2019 14:00:00 9,3 2,9 8,1 8,5 5,6 10,5 8 4 16 9 S 1013,4 60 0,0
10.11.2019 13:00:00 8,5 2,7 8,2 7,2 5,2 10,5 9 5 14 8 S 1013,4 60 0,0
10.11.2019 12:00:00 7,3 2,5 8,4 7,0 4,7 10,5 7 4 14 8 S 1013,3 60 0,0
10.11.2019 11:00:00 5,1 2,3 6,0 4,2 4,5 10,5 8 4 15 8 S 1013,4 46 0,0
10.11.2019 10:00:00 3,1 1,5 2,9 2,1 4,5 10,6 6 3 11 6 S 1013,0 45 0,0
10.11.2019 09:00:00 1,4 1,0 0,2 1,4 4,6 10,6 6 4 10 5 SSE 1012,5 10 0,0
10.11.2019 08:00:00 0,3 0,0 -1,0 1,5 4,7 10,6 6 3 13 7 SSE 1011,6 0 0,0
10.11.2019 07:00:00 0,9 0,5 -0,1 1,6 4,8 10,6 8 5 13 7 SSE 1010,7 0 0,0
10.11.2019 06:00:00 1,1 0,9 0,0 1,7 5,0 10,6 5 3 9 5 S 1010,1 0 0,0
10.11.2019 05:00:00 0,9 0,5 -1,0 1,6 5,1 10,6 4 2 10 5 SSE 1009,8 0 0,0
10.11.2019 04:00:00 1,5 1,2 -0,3 1,9 5,3 10,6 6 4 11 6 S 1009,3 0 0,0
10.11.2019 03:00:00 1,8 1,2 0,2 2,2 5,5 10,7 8 4 12 6 SSE 1009,1 0 0,0
10.11.2019 02:00:00 2,5 1,5 0,7 2,5 5,7 10,7 7 4 17 9 SSE 1008,7 0 0,0
10.11.2019 01:00:00 3,3 1,6 1,4 2,9 5,8 10,7 9 5 19 10 S 1008,4 0 0,0
10.11.2019 00:00:00 3,9 2,2 2,0 3,1 6,0 10,7 10 6 21 11 S 1008,0 0 0,0
09.11.2019 23:00:00 3,4 2,0 1,3 3,3 6,2 10,7 8 4 15 8 S 1007,6 0 0,0
09.11.2019 22:00:00 4,2 2,5 2,1 3,9 6,4 10,8 9 5 16 9 S 1007,4 0 0,0
09.11.2019 21:00:00 4,9 2,7 3,0 4,6 6,5 10,8 10 6 22 12 S 1007,3 0 0,0
09.11.2019 20:00:00 5,9 3,2 4,2 5,4 6,6 10,8 14 8 32 17 S 1006,8 0 0,0
09.11.2019 19:00:00 6,6 3,5 5,5 5,5 6,7 10,8 19 10 36 20 S 1006,7 0 0,0
09.11.2019 18:00:00 6,9 3,9 5,0 5,7 6,7 10,8 15 8 30 16 S 1006,5 0 0,0
09.11.2019 17:00:00 7,2 4,3 5,5 6,1 6,7 10,9 16 9 31 17 S 1006,0 11 0,0
09.11.2019 16:00:00 8,0 4,6 6,2 7,0 6,5 10,9 17 9 35 19 S 1005,9 4 0,0
09.11.2019 15:00:00 7,7 4,9 6,8 7,0 6,3 10,9 16 9 30 16 S 1006,2 0 0,0
09.11.2019 14:00:00 7,6 5,2 6,9 7,1 6,0 10,9 15 8 27 14 S 1006,3 10 0,0
09.11.2019 13:00:00 6,8 5,5 7,1 6,3 5,7 10,9 13 7 23 12 S 1006,6 0 0,0
09.11.2019 12:00:00 5,9 5,5 6,0 5,5 5,5 10,9 12 7 23 12 S 1007,0 0 0,0
09.11.2019 11:00:00 5,0 4,7 5,2 4,6 5,3 11,0 10 6 21 11 S 1007,3 0 0,0
09.11.2019 10:00:00 4,2 4,0 4,2 3,6 5,2 11,0 13 7 21 11 S 1007,4 0 0,0
09.11.2019 09:00:00 3,3 3,2 3,0 2,5 5,2 11,0 11 6 18 10 S 1007,4 0 0,0
09.11.2019 08:00:00 1,9 1,8 0,1 1,8 5,4 11,0 6 3 12 6 S 1007,5 0 0,0
09.11.2019 07:00:00 2,0 2,0 0,4 2,0 5,6 11,0 8 4 12 7 SSE 1007,3 0 0,0
09.11.2019 06:00:00 2,3 2,3 0,0 2,2 5,7 11,0 6 3 9 5 S 1007,6 0 0,0
09.11.2019 05:00:00 1,8 1,6 -0,5 2,6 5,9 11,0 4 2 5 3 SSW 1007,7 0 0,0
09.11.2019 04:00:00 2,6 2,6 0,8 3,1 6,0 11,1 5 3 8 4 S 1007,8 0 0,0
09.11.2019 03:00:00 1,8 1,7 0,6 2,9 6,2 11,1 4 2 7 4 SSW 1007,9 0 0,0
09.11.2019 02:00:00 2,1 2,0 0,0 3,1 6,3 11,1 3 1 5 3 SE 1007,9 0 0,0
09.11.2019 01:00:00 1,9 1,7 0,4 3,3 6,5 11,1 2 1 4 2 S 1008,0 0 0,0
09.11.2019 00:00:00 2,3 2,1 0,8 3,6 6,7 11,1 3 1 4 2 SSE 1007,9 0 0,0
08.11.2019 23:00:00 2,4 2,2 1,1 3,8 6,9 11,1 0 0 5 3 N 1008,1 0 0,0
08.11.2019 22:00:00 2,9 2,5 1,2 4,1 7,1 11,1 2 1 5 3 NNW 1008,3 0 0,0
08.11.2019 21:00:00 3,8 3,5 1,3 4,6 7,3 11,2 0 0 3 2 N 1008,2 0 0,0
08.11.2019 20:00:00 4,6 4,2 2,6 5,0 7,5 11,2 2 1 5 3 W 1007,7 0 0,0
08.11.2019 19:00:00 4,8 4,2 2,5 5,4 7,7 11,2 0 0 3 2 N 1007,7 0 0,0
08.11.2019 18:00:00 6,1 4,8 2,7 6,1 7,9 11,2 0 0 6 4 N 1007,5 0 0,0
08.11.2019 17:00:00 7,5 5,0 4,1 7,2 7,9 11,2 4 2 6 4 E 1007,1 18 0,0
08.11.2019 16:00:00 10,4 4,3 6,7 7,9 7,9 11,2 4 2 11 6 WSW 1006,6 2 0,0
08.11.2019 15:00:00 10,7 4,3 7,9 8,8 7,7 11,3 4 2 11 6 SW 1006,4 51 0,0
08.11.2019 14:00:00 11,1 3,9 9,0 10,2 7,3 11,3 5 3 14 7 ESE 1006,3 60 0,0
08.11.2019 13:00:00 10,5 4,7 9,1 8,8 6,9 11,3 8 4 14 8 S 1006,4 60 0,0
08.11.2019 12:00:00 9,1 4,3 8,5 8,6 6,4 11,3 8 4 13 7 S 1006,7 60 0,0
08.11.2019 11:00:00 7,2 4,5 7,2 6,2 6,2 11,3 6 3 11 6 SSE 1007,0 59 0,0
08.11.2019 10:00:00 4,9 3,5 4,7 3,6 6,2 11,3 7 4 15 8 SSE 1006,7 60 0,0
08.11.2019 09:00:00 3,1 2,6 1,7 3,0 6,4 11,3 7 4 16 8 SSE 1006,5 10 0,0
08.11.2019 08:00:00 2,8 2,3 1,3 3,0 6,6 11,3 9 5 16 9 SSE 1005,9 0 0,0
08.11.2019 07:00:00 3,0 2,5 1,1 3,3 6,8 11,3 6 4 16 9 SSE 1005,3 0 0,0
08.11.2019 06:00:00 3,7 3,0 2,0 3,6 6,9 11,3 10 6 19 10 SSE 1004,9 0 0,0
08.11.2019 05:00:00 3,9 3,2 2,2 3,8 7,1 11,4 10 6 18 10 SSE 1004,6 0 0,0
08.11.2019 04:00:00 4,0 3,3 2,2 4,1 7,3 11,4 8 4 20 11 SSE 1003,9 0 0,0
08.11.2019 03:00:00 5,5 3,8 3,3 4,4 7,5 11,4 10 6 22 12 S 1003,7 0 0,0
08.11.2019 02:00:00 5,4 3,9 3,3 4,6 7,7 11,4 11 6 20 11 S 1003,2 0 0,0
08.11.2019 01:00:00 5,2 3,9 3,1 4,9 7,9 11,4 9 5 17 9 S 1002,8 0 0,0
08.11.2019 00:00:00 5,8 4,2 3,9 5,3 8,1 11,4 13 7 22 12 S 1002,6 0 0,0
07.11.2019 23:00:00 6,1 4,7 4,2 5,7 8,4 11,4 10 5 28 15 S 1001,8 0 0,0
07.11.2019 22:00:00 6,5 5,2 4,5 6,2 8,6 11,4 12 6 25 13 SSW 1001,2 0 0,0
07.11.2019 21:00:00 7,4 5,8 5,5 6,7 8,7 11,4 14 8 25 13 SSW 1000,1 0 0,0
07.11.2019 20:00:00 7,7 6,3 5,9 7,3 8,9 11,5 12 6 22 12 S 999,2 0 0,0
07.11.2019 19:00:00 8,2 6,9 6,2 8,1 9,0 11,5 12 7 46 25 SSW 998,5 0 0,0
07.11.2019 18:00:00 8,7 8,0 8,2 8,8 9,0 11,5 15 8 28 15 SSE 997,4 0 0,5
07.11.2019 17:00:00 8,9 8,1 8,4 8,9 8,9 11,5 13 7 29 15 SSE 996,6 0 0,5
07.11.2019 16:00:00 9,0 8,3 8,7 9,2 8,8 11,5 14 7 31 17 SSE 996,6 0 1,0
07.11.2019 15:00:00 10,0 7,5 9,2 9,6 8,7 11,5 9 5 20 11 SE 996,6 0 0,0
07.11.2019 14:00:00 9,7 7,2 9,0 9,5 8,4 11,5 9 5 21 11 SE 997,0 0 0,0
07.11.2019 13:00:00 10,0 7,2 9,5 9,6 8,2 11,5 10 5 23 12 SE 997,3 0 0,0
07.11.2019 12:00:00 8,1 6,3 7,9 8,4 7,9 11,5 7 4 21 11 SE 997,9 0 0,0
07.11.2019 11:00:00 7,5 6,1 7,5 8,1 7,7 11,5 7 4 16 9 E 998,3 4 0,0
07.11.2019 10:00:00 6,1 5,5 6,2 6,6 7,6 11,5 4 2 13 7 E 998,8 0 0,0
07.11.2019 09:00:00 5,6 4,9 5,4 6,1 7,6 11,6 4 2 15 8 E 999,2 0 0,1

tt = Température de l'air
td = dewpoint
tt 5cm = Température de l'air 5cm
tt -5cm = Température de l'air -5cm
tt -20cm = Température de l'air -20cm
tt -100cm = Température de l'air -100cm
ff = Vitesse du vent
fx = gusts
dd = Direction du vent
ppp = reduced air pressure
sd = Ensoleillement
rr = Quantités de précipitations

stations d'obs. à proximité